Time;durP1;ratioP1;P1;durP2;ratioP2;P2;SDS_P1;SDS_P2;PMS_P1;PMS_P2;Temp;Humidity;BMP_temperature;BMP_pressure;BME280_temperature;BME280_humidity;BME280_pressure;Samples;Min_cycle;Max_cycle;Signal;HPM_P1;HPM_P2
2022/12/18 00:01:08;;;;;;;99.40;46.55;;;-10.80;97.60;;;;;;5071049;28;20366;-63
2022/12/18 00:03:33;;;;;;;98.75;47.28;;;-10.90;97.90;;;;;;5053808;28;20429;-63
2022/12/18 00:05:59;;;;;;;84.75;43.17;;;-10.90;97.50;;;;;;5071047;28;20036;-63
2022/12/18 00:08:25;;;;;;;96.85;46.05;;;-10.90;97.50;;;;;;5073254;28;20028;-63
2022/12/18 00:10:50;;;;;;;92.10;42.55;;;-10.90;97.80;;;;;;5070336;28;20035;-63
2022/12/18 00:13:16;;;;;;;102.05;51.67;;;-11.10;98.00;;;;;;5071614;28;20033;-63
2022/12/18 00:15:42;;;;;;;94.57;44.28;;;-11.10;97.40;;;;;;5069548;28;20024;-63
2022/12/18 00:18:08;;;;;;;89.82;42.67;;;-11.00;97.30;;;;;;5072240;28;20075;-63
2022/12/18 00:20:38;;;;;;;79.75;38.30;;;-11.00;96.90;;;;;;5071631;28;20029;-63
2022/12/18 00:23:04;;;;;;;95.72;43.53;;;-11.00;97.20;;;;;;5073041;28;20461;-63
2022/12/18 00:25:32;;;;;;;105.22;47.22;;;-10.90;95.10;;;;;;5071190;28;20060;-63
2022/12/18 00:27:57;;;;;;;88.60;42.13;;;-10.70;95.50;;;;;;5071334;28;20033;-63
2022/12/18 00:30:23;;;;;;;125.53;55.95;;;-10.80;96.70;;;;;;5068918;28;20071;-63
2022/12/18 00:32:48;;;;;;;100.78;46.08;;;-10.90;96.70;;;;;;5072880;28;20029;-63
2022/12/18 00:35:14;;;;;;;87.95;42.00;;;-10.80;97.90;;;;;;5071310;28;20020;-63
2022/12/18 00:37:39;;;;;;;96.90;42.42;;;-11.00;98.00;;;;;;5072916;28;20438;-64
2022/12/18 00:40:06;;;;;;;91.07;43.25;;;-10.90;98.00;;;;;;5071346;28;20051;-63
2022/12/18 00:45:15;;;;;;;86.32;41.05;;;-11.10;98.00;;;;;;5068386;28;20135;-63
2022/12/18 00:47:41;;;;;;;81.15;38.15;;;-11.20;98.00;;;;;;5071935;28;20476;-63
2022/12/18 00:50:08;;;;;;;81.45;37.00;;;-11.20;98.00;;;;;;5071497;28;20418;-63
2022/12/18 00:52:34;;;;;;;80.88;37.03;;;-11.20;98.00;;;;;;5054063;28;20052;-63
2022/12/18 00:55:00;;;;;;;74.10;33.20;;;-11.10;98.00;;;;;;5072054;28;20392;-62
2022/12/18 00:57:25;;;;;;;79.82;37.03;;;-11.10;98.00;;;;;;5071507;28;20134;-62
2022/12/18 00:59:51;;;;;;;69.85;32.33;;;-11.30;98.00;;;;;;5067475;28;20032;-63
2022/12/18 01:02:19;;;;;;;75.82;34.88;;;-11.30;98.00;;;;;;5069972;28;20027;-63
2022/12/18 01:04:50;;;;;;;64.82;31.50;;;-11.20;98.00;;;;;;5070916;28;20032;-62
2022/12/18 01:07:16;;;;;;;62.95;29.98;;;-11.30;98.00;;;;;;5072651;28;20028;-65
2022/12/18 01:09:42;;;;;;;68.50;31.50;;;-11.10;97.30;;;;;;5070963;28;20036;-65
2022/12/18 01:12:07;;;;;;;75.80;36.28;;;-10.90;97.10;;;;;;5069985;28;20047;-63
2022/12/18 01:14:33;;;;;;;72.75;35.58;;;-11.10;98.00;;;;;;5068946;28;20031;-63
2022/12/18 01:16:58;;;;;;;66.10;31.20;;;-11.10;98.00;;;;;;5070306;28;20036;-64
2022/12/18 01:19:24;;;;;;;71.85;30.77;;;-11.10;97.60;;;;;;5070305;28;20481;-63
2022/12/18 01:21:49;;;;;;;58.92;27.30;;;-11.00;96.60;;;;;;5071541;28;20365;-64
2022/12/18 01:24:15;;;;;;;68.13;30.05;;;-11.00;96.40;;;;;;5071665;28;20028;-63
2022/12/18 01:26:41;;;;;;;60.78;27.90;;;-11.00;96.70;;;;;;5070096;28;20115;-63
2022/12/18 01:29:06;;;;;;;53.00;26.40;;;-10.90;95.60;;;;;;5071792;28;20036;-63
2022/12/18 01:31:34;;;;;;;58.40;26.48;;;-10.70;95.10;;;;;;5068241;28;20024;-63
2022/12/18 01:34:04;;;;;;;60.42;28.98;;;-10.60;95.60;;;;;;5067010;28;20429;-63
2022/12/18 01:36:35;;;;;;;57.67;27.30;;;-10.70;98.00;;;;;;5074040;28;20429;-63
2022/12/18 01:39:03;;;;;;;52.30;26.45;;;-10.80;97.30;;;;;;5076186;28;20036;-63
2022/12/18 01:42:01;;;;;;;57.28;26.95;;;-10.60;96.40;;;;;;5074504;28;20031;-63
2022/12/18 01:44:50;;;;;;;49.70;24.00;;;-10.40;96.90;;;;;;5073893;28;20445;-63
2022/12/18 01:47:42;;;;;;;48.95;24.90;;;-10.50;97.40;;;;;;5073964;28;20074;-63
2022/12/18 01:50:19;;;;;;;55.90;27.27;;;-10.30;96.00;;;;;;5055634;28;20033;-63
2022/12/18 01:52:51;;;;;;;54.60;27.88;;;-10.10;95.60;;;;;;5076136;28;20025;-63
2022/12/18 01:55:20;;;;;;;56.47;25.10;;;-10.10;96.70;;;;;;5072161;28;20329;-63
2022/12/18 01:57:47;;;;;;;56.85;26.52;;;-10.10;96.50;;;;;;5065372;28;20108;-63
2022/12/18 02:00:19;;;;;;;50.03;23.40;;;-10.20;97.10;;;;;;5060901;28;20452;-63
2022/12/18 02:02:46;;;;;;;50.38;23.75;;;-10.20;97.00;;;;;;5072236;28;20087;-63
2022/12/18 02:05:17;;;;;;;53.67;25.80;;;-10.10;96.00;;;;;;5074214;28;20158;-63
2022/12/18 02:08:17;;;;;;;57.58;25.95;;;-10.00;96.20;;;;;;5074017;28;20036;-63
2022/12/18 02:11:09;;;;;;;49.13;22.48;;;-9.80;94.70;;;;;;5063388;28;20382;-63
2022/12/18 02:14:04;;;;;;;51.63;23.98;;;-9.60;93.80;;;;;;5073465;28;20317;-63
2022/12/18 02:17:02;;;;;;;52.28;23.80;;;-9.40;94.30;;;;;;5066578;28;20036;-63
2022/12/18 02:19:39;;;;;;;49.50;24.15;;;-9.40;94.60;;;;;;5073796;28;20028;-63
2022/12/18 02:22:33;;;;;;;48.90;23.27;;;-9.20;93.70;;;;;;5075305;28;20495;-63
2022/12/18 02:25:19;;;;;;;;;;;-9.10;93.70;;;;;;5073234;28;20032;-63
2022/12/18 02:27:47;;;;;;;56.05;24.35;;;-9.10;94.30;;;;;;5047046;28;19971;-63
2022/12/18 02:30:13;;;;;;;55.50;25.85;;;-9.00;93.70;;;;;;5072398;28;20712;-63
2022/12/18 02:32:43;;;;;;;53.58;26.13;;;-8.90;94.60;;;;;;5075077;28;20016;-63
2022/12/18 02:35:20;;;;;;;52.10;25.25;;;-8.80;94.20;;;;;;5073356;28;20028;-63
2022/12/18 02:37:47;;;;;;;47.50;24.08;;;-8.80;94.20;;;;;;5075061;28;20024;-63
2022/12/18 02:40:15;;;;;;;51.80;24.95;;;-8.80;95.20;;;;;;5074175;28;20109;-63
2022/12/18 02:42:41;;;;;;;50.15;25.75;;;-8.80;95.60;;;;;;5073768;28;20166;-63
2022/12/18 02:45:07;;;;;;;46.85;23.08;;;-8.90;96.60;;;;;;5070265;28;20138;-63
2022/12/18 02:47:37;;;;;;;54.40;25.30;;;-8.90;95.70;;;;;;5073146;28;20025;-63
2022/12/18 02:50:30;;;;;;;52.15;25.35;;;-8.90;96.00;;;;;;5074820;28;20043;-63
2022/12/18 02:53:13;;;;;;;51.90;25.08;;;-8.90;96.70;;;;;;5074091;28;20032;-63
2022/12/18 02:55:39;;;;;;;49.95;24.20;;;-9.20;97.80;;;;;;5073162;28;20063;-63
2022/12/18 02:58:33;;;;;;;55.65;26.05;;;-9.50;98.00;;;;;;5072383;28;20060;-63
2022/12/18 03:01:20;;;;;;;62.33;27.67;;;-9.60;98.00;;;;;;5072075;28;20878;-63
2022/12/18 03:03:57;;;;;;;63.80;30.33;;;-9.60;98.00;;;;;;5073710;28;20068;-63
2022/12/18 03:06:27;;;;;;;71.80;31.92;;;-9.50;97.10;;;;;;5074638;28;20035;-63
2022/12/18 03:09:00;;;;;;;59.53;26.85;;;-9.40;98.00;;;;;;5072593;28;20085;-63
2022/12/18 03:14:17;;;;;;;56.47;28.45;;;-9.50;98.00;;;;;;5055182;28;20032;-63
2022/12/18 03:16:44;;;;;;;63.15;28.50;;;-9.50;97.40;;;;;;5072867;28;20375;-63
2022/12/18 03:19:16;;;;;;;55.88;26.30;;;-9.60;98.00;;;;;;5077274;28;20028;-63
2022/12/18 03:22:09;;;;;;;52.75;25.30;;;-9.80;98.00;;;;;;5076520;28;20032;-63
2022/12/18 03:24:38;;;;;;;59.58;26.92;;;-9.80;98.00;;;;;;5072656;28;20448;-63
2022/12/18 03:27:09;;;;;;;55.25;28.23;;;-9.70;98.00;;;;;;5076223;28;20040;-63
2022/12/18 03:29:44;;;;;;;65.70;28.95;;;-9.80;98.00;;;;;;5074837;28;20039;-63
2022/12/18 03:32:21;;;;;;;60.90;28.27;;;-9.80;98.00;;;;;;5073498;28;20043;-63
2022/12/18 03:34:50;;;;;;;60.88;27.65;;;-10.00;98.00;;;;;;5076353;28;20334;-63
2022/12/18 03:37:15;;;;;;;58.47;28.23;;;-10.10;98.00;;;;;;5076084;28;20333;-63
2022/12/18 03:39:43;;;;;;;53.58;25.88;;;-10.30;98.00;;;;;;5076353;28;20036;-63
2022/12/18 03:42:28;;;;;;;51.08;25.25;;;-10.40;98.00;;;;;;5076185;28;20112;-63
2022/12/18 03:45:18;;;;;;;52.33;24.73;;;-10.30;98.00;;;;;;5074599;28;20056;-63
2022/12/18 03:48:26;;;;;;;60.03;26.55;;;-10.20;98.00;;;;;;5070402;28;20043;-63
2022/12/18 03:50:52;;;;;;;51.03;23.75;;;-10.20;98.00;;;;;;4960049;28;20110;-62
2022/12/18 03:53:39;;;;;;;60.45;26.38;;;-10.40;98.00;;;;;;5057766;28;20513;-62
2022/12/18 03:56:05;;;;;;;87.57;34.88;;;-10.30;98.00;;;;;;5055775;28;20039;-62
2022/12/18 03:58:34;;;;;;;66.03;29.63;;;-10.30;98.00;;;;;;5074446;28;20040;-62
2022/12/18 04:01:03;;;;;;;64.47;29.35;;;-10.20;97.60;;;;;;5073860;28;20425;-64
2022/12/18 04:03:30;;;;;;;60.30;27.85;;;-10.20;97.90;;;;;;5075454;28;20016;-64
2022/12/18 04:06:01;;;;;;;56.72;26.50;;;-10.20;97.30;;;;;;5075556;28;20417;-64
2022/12/18 04:08:28;;;;;;;55.03;25.90;;;-10.20;96.70;;;;;;5075533;28;20032;-64
2022/12/18 04:10:54;;;;;;;51.22;23.70;;;-10.20;96.70;;;;;;5075326;28;20051;-63
2022/12/18 04:13:39;;;;;;;52.97;24.27;;;-10.20;95.70;;;;;;5074326;28;20028;-63
2022/12/18 04:16:05;;;;;;;100.28;35.90;;;-10.10;95.70;;;;;;5071913;28;20028;-63
2022/12/18 04:18:31;;;;;;;63.20;28.35;;;-10.30;98.00;;;;;;5076250;28;20017;-63
2022/12/18 04:20:56;;;;;;;53.72;25.02;;;-10.50;97.90;;;;;;5073088;28;20089;-63
2022/12/18 04:23:22;;;;;;;61.47;27.38;;;-10.40;97.50;;;;;;5076149;28;20035;-63
2022/12/18 04:25:48;;;;;;;61.15;26.17;;;-10.20;97.40;;;;;;5074153;28;20025;-63
2022/12/18 04:28:13;;;;;;;63.95;28.40;;;-10.20;96.90;;;;;;5074209;28;20031;-64
2022/12/18 04:30:39;;;;;;;84.68;36.53;;;-10.20;98.00;;;;;;5072807;28;20250;-63
2022/12/18 04:33:09;;;;;;;57.08;26.48;;;-10.40;97.90;;;;;;5076066;28;20428;-63
2022/12/18 04:35:35;;;;;;;54.67;25.23;;;-10.30;97.60;;;;;;5074320;28;20364;-63
2022/12/18 04:38:01;;;;;;;63.97;28.75;;;-10.30;98.00;;;;;;5062191;28;20087;-63
2022/12/18 04:40:26;;;;;;;53.50;26.88;;;-10.50;98.00;;;;;;5066566;28;20036;-63
2022/12/18 04:42:52;;;;;;;53.85;24.98;;;-10.60;98.00;;;;;;5075468;28;20035;-64
2022/12/18 04:45:17;;;;;;;53.08;24.77;;;-10.50;98.00;;;;;;5071512;28;20048;-64
2022/12/18 04:47:43;;;;;;;47.47;22.73;;;-10.50;98.00;;;;;;5075286;28;20025;-64
2022/12/18 04:50:09;;;;;;;47.97;24.90;;;-10.40;97.70;;;;;;5073928;28;20035;-63
2022/12/18 04:52:34;;;;;;;51.67;24.90;;;-10.30;97.40;;;;;;5058196;28;20027;-62
2022/12/18 04:55:00;;;;;;;54.70;24.95;;;-10.20;96.50;;;;;;5073746;28;20317;-63
2022/12/18 04:57:26;;;;;;;51.25;24.42;;;-10.20;97.50;;;;;;5075779;28;20028;-63
2022/12/18 04:59:51;;;;;;;56.95;26.17;;;-10.40;98.00;;;;;;5072828;28;20025;-63
2022/12/18 05:02:20;;;;;;;49.63;23.80;;;-10.60;98.00;;;;;;5073404;28;20036;-62
2022/12/18 05:04:45;;;;;;;59.80;26.67;;;-10.80;98.00;;;;;;5073310;28;20032;-63
2022/12/18 05:07:11;;;;;;;55.30;26.48;;;-10.80;98.00;;;;;;5075524;28;20039;-63
2022/12/18 05:09:36;;;;;;;58.42;27.83;;;-10.70;97.50;;;;;;5073917;28;20086;-63
2022/12/18 05:12:02;;;;;;;61.38;29.05;;;-10.60;97.10;;;;;;5075522;28;20020;-63
2022/12/18 05:14:29;;;;;;;67.47;30.55;;;-10.60;96.40;;;;;;5072614;28;20020;-63
2022/12/18 05:16:54;;;;;;;66.03;29.40;;;-10.50;96.80;;;;;;5074579;28;20103;-63
2022/12/18 05:19:20;;;;;;;60.22;27.73;;;-10.50;95.50;;;;;;5073095;28;20095;-63
2022/12/18 05:21:46;;;;;;;66.53;29.98;;;-10.50;94.80;;;;;;5074901;28;20036;-63
2022/12/18 05:24:11;;;;;;;61.58;27.83;;;-10.20;91.40;;;;;;5074480;28;20414;-62
2022/12/18 05:26:37;;;;;;;78.90;32.88;;;-9.70;87.80;;;;;;5074386;28;20029;-63
2022/12/18 05:29:02;;;;;;;73.13;31.90;;;-9.30;89.50;;;;;;5073225;28;20424;-63
2022/12/18 05:31:28;;;;;;;89.63;35.22;;;-9.40;92.80;;;;;;5073374;28;20028;-63
2022/12/18 05:33:54;;;;;;;84.53;31.45;;;-9.60;95.40;;;;;;5074647;28;20021;-63
2022/12/18 05:36:19;;;;;;;57.90;28.42;;;-9.70;95.30;;;;;;5071396;28;20093;-63
2022/12/18 05:38:45;;;;;;;67.97;29.70;;;-9.90;96.70;;;;;;5075426;28;20067;-63
2022/12/18 05:41:10;;;;;;;69.40;32.65;;;-10.00;96.20;;;;;;5072991;28;20028;-63
2022/12/18 05:43:38;;;;;;;76.72;32.17;;;-10.00;97.00;;;;;;5074071;28;20124;-63
2022/12/18 05:46:06;;;;;;;60.70;28.23;;;-10.20;96.80;;;;;;5072451;28;20098;-63
2022/12/18 05:48:31;;;;;;;71.93;33.13;;;-10.20;97.00;;;;;;5074455;28;20024;-63
2022/12/18 05:51:10;;;;;;;69.60;33.50;;;-10.30;97.40;;;;;;5055824;28;20440;-63
2022/12/18 05:53:37;;;;;;;66.88;31.27;;;-10.30;96.20;;;;;;5075438;28;20047;-63
2022/12/18 05:56:04;;;;;;;66.80;30.98;;;-10.30;96.30;;;;;;5073133;28;20024;-63
2022/12/18 05:58:31;;;;;;;63.58;29.77;;;-10.10;95.90;;;;;;5073925;28;20113;-63
2022/12/18 06:00:57;;;;;;;64.93;29.48;;;-10.20;97.20;;;;;;5072614;28;20032;-63
2022/12/18 06:03:23;;;;;;;61.97;29.23;;;-10.20;96.40;;;;;;5075151;28;20074;-63
2022/12/18 06:05:48;;;;;;;54.30;26.60;;;-10.20;96.20;;;;;;5072055;28;20356;-63
2022/12/18 06:08:14;;;;;;;50.92;23.25;;;-10.20;96.40;;;;;;5075064;28;20025;-63
2022/12/18 06:10:40;;;;;;;48.88;25.27;;;-10.10;95.80;;;;;;5073388;28;20028;-62
2022/12/18 06:13:06;;;;;;;67.68;28.73;;;-10.20;97.50;;;;;;5075238;28;20089;-63
2022/12/18 06:15:32;;;;;;;58.47;25.90;;;-10.30;96.60;;;;;;5075709;28;20503;-63
2022/12/18 06:17:58;;;;;;;60.50;26.48;;;-10.20;95.40;;;;;;5078849;28;20020;-63
2022/12/18 06:20:23;;;;;;;63.97;28.50;;;-10.20;95.50;;;;;;5075731;28;20325;-63
2022/12/18 06:22:52;;;;;;;61.83;28.13;;;-10.20;96.40;;;;;;5077225;28;20032;-63
2022/12/18 06:25:17;;;;;;;56.72;25.48;;;-10.30;97.00;;;;;;5058757;28;20039;-63
2022/12/18 06:27:47;;;;;;;60.58;27.13;;;-10.30;97.40;;;;;;5078433;28;20086;-62
2022/12/18 06:30:16;;;;;;;66.03;29.48;;;-10.40;97.40;;;;;;5074604;28;20098;-63
2022/12/18 06:32:41;;;;;;;63.97;28.88;;;-10.50;98.00;;;;;;5078384;28;20090;-63
2022/12/18 06:35:07;;;;;;;61.92;28.08;;;-10.70;98.00;;;;;;5075368;28;20033;-63
2022/12/18 06:37:36;;;;;;;58.88;27.52;;;-10.90;98.00;;;;;;5077608;28;20024;-63
2022/12/18 06:40:01;;;;;;;69.03;29.90;;;-10.90;97.80;;;;;;5058535;28;20425;-63
2022/12/18 06:42:28;;;;;;;55.65;25.33;;;-10.90;98.00;;;;;;5078348;28;20094;-63
2022/12/18 06:44:53;;;;;;;56.65;27.88;;;-10.80;97.30;;;;;;5076769;28;20048;-63
2022/12/18 06:47:19;;;;;;;73.88;31.75;;;-10.60;97.20;;;;;;5076621;28;20483;-63
2022/12/18 06:49:44;;;;;;;63.63;29.20;;;-10.70;98.00;;;;;;5077007;28;20043;-62
2022/12/18 06:52:10;;;;;;;53.15;25.80;;;-10.70;98.00;;;;;;5076001;28;20090;-63
2022/12/18 06:54:35;;;;;;;64.28;27.70;;;-10.70;97.80;;;;;;5070163;28;20051;-62
2022/12/18 06:57:01;;;;;;;96.88;37.65;;;-10.70;97.90;;;;;;5073550;28;20035;-65
2022/12/18 06:59:27;;;;;;;92.53;37.85;;;-10.60;97.20;;;;;;5075672;28;20383;-64
2022/12/18 07:01:52;;;;;;;72.25;32.00;;;-10.50;97.90;;;;;;5076164;28;20032;-64
2022/12/18 07:04:20;;;;;;;78.70;34.95;;;-10.50;97.30;;;;;;5058030;28;20332;-64
2022/12/18 07:06:46;;;;;;;68.00;29.65;;;-10.40;98.00;;;;;;5057853;28;20039;-63
2022/12/18 07:09:12;;;;;;;73.70;33.63;;;-10.60;98.00;;;;;;5076424;28;20033;-64
2022/12/18 07:11:37;;;;;;;66.18;30.67;;;-10.50;98.00;;;;;;5076055;28;20166;-63
2022/12/18 07:14:03;;;;;;;87.65;39.50;;;-10.50;98.00;;;;;;5076617;28;20032;-63
2022/12/18 07:16:28;;;;;;;86.22;38.05;;;-10.50;98.00;;;;;;5077343;28;20078;-63
2022/12/18 07:18:55;;;;;;;92.35;39.70;;;-10.40;98.00;;;;;;5077588;28;20032;-63
2022/12/18 07:21:22;;;;;;;76.95;32.47;;;-10.40;97.80;;;;;;5077255;28;20465;-63
2022/12/18 07:23:48;;;;;;;71.85;32.53;;;-10.30;97.50;;;;;;5072980;28;20028;-63
2022/12/18 07:26:18;;;;;;;73.47;36.28;;;-10.30;96.60;;;;;;5073094;28;20047;-63
2022/12/18 07:28:44;;;;;;;112.78;48.67;;;-10.10;96.00;;;;;;5070243;28;20028;-63
2022/12/18 07:31:13;;;;;;;65.70;32.90;;;-10.10;98.00;;;;;;5077365;28;20077;-63
2022/12/18 07:33:39;;;;;;;65.53;30.27;;;-10.10;98.00;;;;;;5072943;28;20044;-63
2022/12/18 07:36:06;;;;;;;76.30;37.80;;;-10.10;98.00;;;;;;5067875;28;20079;-63
2022/12/18 07:38:33;;;;;;;80.75;39.08;;;-10.10;98.00;;;;;;5076054;28;20083;-63
2022/12/18 07:41:10;;;;;;;60.33;29.23;;;-10.10;98.00;;;;;;5057540;28;20032;-63
2022/12/18 07:43:36;;;;;;;78.07;33.38;;;-10.00;98.00;;;;;;5068875;28;20052;-63
2022/12/18 07:46:06;;;;;;;66.80;30.95;;;-10.00;98.00;;;;;;5074518;28;20107;-63
2022/12/18 07:48:34;;;;;;;54.03;26.23;;;-10.00;98.00;;;;;;5072072;28;20016;-63
2022/12/18 07:51:01;;;;;;;57.90;26.20;;;-10.00;98.00;;;;;;5057959;28;20357;-63
2022/12/18 07:53:27;;;;;;;55.60;24.05;;;-10.00;98.00;;;;;;5072685;28;20081;-63
2022/12/18 07:56:01;;;;;;;61.83;29.48;;;-9.90;97.90;;;;;;5076591;28;20024;-63
2022/12/18 07:58:26;;;;;;;68.35;30.00;;;-9.90;98.00;;;;;;5071236;28;20024;-63
2022/12/18 08:00:52;;;;;;;58.90;26.60;;;-9.80;98.00;;;;;;5073114;28;20431;-64
2022/12/18 08:03:18;;;;;;;124.93;53.28;;;-9.80;97.30;;;;;;5074819;28;20036;-64
2022/12/18 08:05:44;;;;;;;61.15;26.63;;;-9.50;97.20;;;;;;5062937;28;20342;-64
2022/12/18 08:08:10;;;;;;;68.00;30.33;;;-9.40;96.70;;;;;;5056184;28;20028;-63
2022/12/18 08:10:35;;;;;;;60.53;28.90;;;-9.20;97.00;;;;;;5075155;28;20165;-64
2022/12/18 08:13:01;;;;;;;67.75;29.77;;;-9.10;97.20;;;;;;5074353;28;20025;-63
2022/12/18 08:15:26;;;;;;;66.20;30.58;;;-9.00;97.20;;;;;;5074348;28;20032;-64
2022/12/18 08:17:52;;;;;;;70.53;33.05;;;-8.90;97.50;;;;;;5066985;28;20111;-64
2022/12/18 08:20:18;;;;;;;67.75;29.77;;;-8.70;97.00;;;;;;5056437;28;20032;-64
2022/12/18 08:22:44;;;;;;;90.45;39.30;;;-8.60;97.30;;;;;;5069191;28;20035;-63
2022/12/18 08:25:09;;;;;;;74.43;35.25;;;-8.60;98.00;;;;;;5075731;28;20303;-63
2022/12/18 08:27:35;;;;;;;79.25;37.88;;;-8.70;98.00;;;;;;5072629;28;20024;-63
2022/12/18 08:30:01;;;;;;;112.03;49.63;;;-8.70;98.00;;;;;;5074479;28;20060;-63
2022/12/18 08:32:27;;;;;;;89.95;41.08;;;-8.40;95.00;;;;;;5071370;28;20039;-63
2022/12/18 08:34:53;;;;;;;89.97;43.60;;;-7.70;89.00;;;;;;5057458;28;20028;-63
2022/12/18 08:37:18;;;;;;;96.80;45.25;;;-6.60;81.30;;;;;;5066749;28;20028;-63
2022/12/18 08:39:44;;;;;;;99.25;46.45;;;-5.80;81.70;;;;;;5075386;28;20036;-64
2022/12/18 08:44:54;;;;;;;85.88;43.83;;;-4.10;70.80;;;;;;5070521;28;20346;-64
2022/12/18 08:47:19;;;;;;;468.73;88.93;;;-2.30;68.20;;;;;;5074423;28;20024;-63
2022/12/18 08:49:45;;;;;;;66.80;35.40;;;-0.90;69.40;;;;;;5074632;28;20137;-64
2022/12/18 08:52:11;;;;;;;58.17;31.63;;;-0.70;68.30;;;;;;5075505;28;20371;-64
2022/12/18 08:54:36;;;;;;;61.65;32.92;;;-0.50;80.90;;;;;;5073772;28;20032;-64
2022/12/18 08:57:02;;;;;;;66.95;36.22;;;-0.30;88.60;;;;;;5072240;28;20062;-64
2022/12/18 08:59:28;;;;;;;57.60;31.83;;;-0.40;98.00;;;;;;5058320;28;20024;-64
2022/12/18 09:01:55;;;;;;;54.67;31.83;;;0.70;98.00;;;;;;5069405;28;20033;-64
2022/12/18 09:04:20;;;;;;;57.65;34.45;;;1.30;98.00;;;;;;5068936;28;20040;-64
2022/12/18 09:06:46;;;;;;;58.20;33.78;;;2.70;98.00;;;;;;5075545;28;20077;-64
2022/12/18 09:09:12;;;;;;;57.05;35.35;;;3.00;96.90;;;;;;5075148;28;20021;-64
2022/12/18 09:11:37;;;;;;;48.20;29.40;;;3.30;90.40;;;;;;5062988;28;20028;-64
2022/12/18 09:14:03;;;;;;;41.33;26.30;;;3.90;92.30;;;;;;5060389;28;20025;-64
2022/12/18 09:16:30;;;;;;;53.72;32.67;;;3.90;86.20;;;;;;5074639;28;20076;-64
2022/12/18 09:18:59;;;;;;;50.67;30.42;;;4.50;86.30;;;;;;5074183;28;20028;-64
2022/12/18 09:21:26;;;;;;;52.00;32.70;;;4.50;82.80;;;;;;5073265;28;20086;-64
2022/12/18 09:23:53;;;;;;;49.83;31.17;;;4.20;84.30;;;;;;5074315;28;20021;-63
2022/12/18 09:26:24;;;;;;;52.42;32.70;;;4.30;85.50;;;;;;5073504;28;20052;-64
2022/12/18 09:28:50;;;;;;;51.55;30.35;;;4.60;83.10;;;;;;5060782;28;20437;-63
2022/12/18 09:31:20;;;;;;;43.13;25.85;;;5.10;81.90;;;;;;5072505;28;20145;-63
2022/12/18 09:33:46;;;;;;;41.63;24.35;;;4.00;80.70;;;;;;5074637;28;20416;-63
2022/12/18 09:36:14;;;;;;;38.30;21.52;;;3.70;82.20;;;;;;5070076;28;20111;-63
2022/12/18 09:38:43;;;;;;;44.45;26.10;;;2.80;84.00;;;;;;5070667;28;20040;-64
2022/12/18 09:41:39;;;;;;;49.30;28.88;;;2.70;84.10;;;;;;5071193;28;20103;-63
2022/12/18 09:44:25;;;;;;;51.15;31.23;;;2.80;84.10;;;;;;5061068;28;20103;-63
2022/12/18 09:47:07;;;;;;;54.03;31.70;;;2.50;84.20;;;;;;5074257;28;20056;-63
2022/12/18 09:49:39;;;;;;;46.17;26.52;;;2.50;83.70;;;;;;5077783;28;20033;-64
2022/12/18 09:52:22;;;;;;;42.75;25.45;;;2.50;85.20;;;;;;5076032;28;20024;-64
2022/12/18 09:55:05;;;;;;;44.07;25.77;;;3.40;84.00;;;;;;5073113;28;20027;-63
2022/12/18 09:57:33;;;;;;;42.25;24.67;;;3.50;81.40;;;;;;5067244;28;21826;-65
2022/12/18 10:00:08;;;;;;;50.08;28.98;;;3.00;83.40;;;;;;5070149;28;20359;-64
2022/12/18 10:02:34;;;;;;;41.55;22.75;;;3.00;81.00;;;;;;5075727;28;20024;-63
2022/12/18 10:05:06;;;;;;;58.25;32.92;;;2.80;81.80;;;;;;5077017;28;20412;-64
2022/12/18 10:07:46;;;;;;;54.72;31.38;;;2.90;82.00;;;;;;5067439;28;20037;-64
2022/12/18 10:10:43;;;;;;;58.92;35.47;;;3.00;82.40;;;;;;5077809;28;20039;-64
2022/12/18 10:13:20;;;;;;;45.15;25.60;;;3.20;82.20;;;;;;5073809;28;20075;-64
2022/12/18 10:16:10;;;;;;;49.15;29.42;;;3.40;79.80;;;;;;5073971;28;20108;-63
2022/12/18 10:19:03;;;;;;;55.05;31.70;;;4.20;79.70;;;;;;5059967;28;20044;-64
2022/12/18 10:22:07;;;;;;;42.42;25.00;;;4.50;78.60;;;;;;5074771;28;20033;-64
2022/12/18 10:25:14;;;;;;;43.60;24.88;;;4.30;80.80;;;;;;5075104;28;20040;-64
2022/12/18 10:27:40;;;;;;;42.92;24.85;;;4.30;79.40;;;;;;5039900;28;20030;-64
2022/12/18 10:30:14;;;;;;;43.50;25.52;;;4.10;78.90;;;;;;5074403;28;20453;-64
2022/12/18 10:32:40;;;;;;;44.88;24.77;;;3.90;79.10;;;;;;5075296;28;20100;-64
2022/12/18 10:35:20;;;;;;;44.88;24.80;;;3.90;80.10;;;;;;5076833;28;20039;-65
2022/12/18 10:38:06;;;;;;;49.35;26.80;;;4.10;78.30;;;;;;5077394;28;20082;-64
2022/12/18 10:40:33;;;;;;;44.38;24.75;;;3.90;78.30;;;;;;5076810;28;20317;-65
2022/12/18 10:43:14;;;;;;;43.47;23.77;;;3.90;78.80;;;;;;5072576;28;20317;-64
2022/12/18 10:45:40;;;;;;;43.42;24.60;;;4.20;78.70;;;;;;5073076;28;20047;-64
2022/12/18 10:48:19;;;;;;;42.70;24.30;;;3.90;77.70;;;;;;5077122;28;20029;-64
2022/12/18 10:50:48;;;;;;;40.25;22.23;;;3.50;79.70;;;;;;5073628;28;20035;-64
2022/12/18 10:53:19;;;;;;;42.58;23.48;;;3.50;79.00;;;;;;5075368;28;20028;-64
2022/12/18 10:55:46;;;;;;;41.03;23.50;;;3.90;81.30;;;;;;5077068;28;20017;-64
2022/12/18 10:58:28;;;;;;;52.67;33.72;;;4.30;77.40;;;;;;5069047;28;20021;-64
2022/12/18 11:01:15;;;;;;;45.28;25.55;;;3.90;77.00;;;;;;5072818;28;20021;-64
2022/12/18 11:04:00;;;;;;;43.85;24.30;;;3.90;77.80;;;;;;5058944;28;20320;-64
2022/12/18 11:06:26;;;;;;;43.42;23.75;;;3.60;78.30;;;;;;5074591;28;20044;-63
2022/12/18 11:09:02;;;;;;;39.95;22.35;;;4.30;79.00;;;;;;5070737;28;20067;-63
2022/12/18 11:11:29;;;;;;;37.45;22.42;;;4.80;77.70;;;;;;5069775;28;20020;-63
2022/12/18 11:14:06;;;;;;;40.63;22.83;;;5.20;77.20;;;;;;5072507;28;20090;-65
2022/12/18 11:16:43;;;;;;;36.20;21.75;;;5.20;75.90;;;;;;5070152;28;20537;-64
2022/12/18 11:19:31;;;;;;;38.72;22.27;;;5.80;75.20;;;;;;5068579;28;20086;-64
2022/12/18 11:21:57;;;;;;;36.22;21.25;;;5.70;73.20;;;;;;5069245;28;20452;-64
2022/12/18 11:24:32;;;;;;;37.70;21.77;;;5.10;75.20;;;;;;5074993;28;20495;-64
2022/12/18 11:27:01;;;;;;;35.08;20.65;;;4.80;75.10;;;;;;5074374;28;20052;-64
2022/12/18 11:29:38;;;;;;;48.47;26.67;;;4.60;75.40;;;;;;5074184;28;20035;-64
2022/12/18 11:32:48;;;;;;;44.08;26.60;;;4.30;76.50;;;;;;5073922;28;20461;-63
2022/12/18 11:35:28;;;;;;;52.40;32.63;;;4.30;76.40;;;;;;4970779;28;20034;-63
2022/12/18 11:37:59;;;;;;;42.05;25.15;;;4.00;77.60;;;;;;5064012;28;20079;-64
2022/12/18 11:40:35;;;;;;;43.22;24.80;;;3.80;77.80;;;;;;5073976;28;20320;-64
2022/12/18 11:43:15;;;;;;;38.80;21.98;;;3.80;77.80;;;;;;5069623;28;20033;-64
2022/12/18 11:45:51;;;;;;;36.83;20.88;;;3.30;78.60;;;;;;5072786;28;20032;-63
2022/12/18 11:48:28;;;;;;;39.40;21.77;;;2.90;80.50;;;;;;5075203;28;20116;-64
2022/12/18 11:51:01;;;;;;;37.22;21.15;;;2.90;81.40;;;;;;5064767;28;20028;-63
2022/12/18 11:53:30;;;;;;;39.43;22.20;;;3.10;81.10;;;;;;5072793;28;20028;-63
2022/12/18 11:56:13;;;;;;;38.83;22.33;;;3.20;80.60;;;;;;5074068;28;20283;-64
2022/12/18 11:58:54;;;;;;;39.87;21.20;;;3.10;80.10;;;;;;5066881;28;20043;-64
2022/12/18 12:01:57;;;;;;;40.45;23.17;;;3.00;81.10;;;;;;5073226;28;20028;-63
2022/12/18 12:04:44;;;;;;;34.38;19.45;;;3.30;81.20;;;;;;5067706;28;20096;-64
2022/12/18 12:07:09;;;;;;;38.28;21.02;;;3.50;80.60;;;;;;5068693;28;20028;-63
2022/12/18 12:09:54;;;;;;;39.10;20.75;;;3.50;80.00;;;;;;5067210;28;20043;-63
2022/12/18 12:12:54;;;;;;;39.47;21.33;;;3.40;80.10;;;;;;5071716;28;20712;-63
2022/12/18 12:15:44;;;;;;;51.70;31.17;;;3.30;80.60;;;;;;5072828;28;20460;-64
2022/12/18 12:18:34;;;;;;;54.72;31.67;;;2.40;82.80;;;;;;5073933;28;20032;-63
2022/12/18 12:21:15;;;;;;;48.38;28.67;;;1.60;85.50;;;;;;5071449;28;20020;-63
2022/12/18 12:23:55;;;;;;;52.03;28.63;;;1.40;86.60;;;;;;5068314;28;20130;-63
2022/12/18 12:26:26;;;;;;;54.42;31.27;;;1.30;87.20;;;;;;5072058;28;20048;-65
2022/12/18 12:29:33;;;;;;;53.08;29.75;;;1.30;87.20;;;;;;5069805;28;20025;-63
2022/12/18 12:32:07;;;;;;;55.67;32.63;;;1.10;88.40;;;;;;5036516;28;20112;-63
2022/12/18 12:34:45;;;;;;;58.63;33.15;;;1.30;87.50;;;;;;5072613;28;20352;-62
2022/12/18 12:37:22;;;;;;;60.95;34.13;;;1.00;88.50;;;;;;5067935;28;20025;-63
2022/12/18 12:39:48;;;;;;;60.28;31.63;;;0.80;89.20;;;;;;5072570;28;20060;-62
2022/12/18 12:45:36;;;;;;;62.60;32.67;;;0.60;88.80;;;;;;5063194;28;20342;-64
2022/12/18 12:48:05;;;;;;;62.47;34.50;;;0.40;90.10;;;;;;5067021;28;20187;-63
2022/12/18 12:50:34;;;;;;;52.95;30.25;;;0.20;90.80;;;;;;5070588;28;20429;-65
2022/12/18 12:53:05;;;;;;;65.07;37.47;;;0.20;90.70;;;;;;5066190;28;20036;-64
2022/12/18 12:55:32;;;;;;;61.20;33.85;;;0.10;91.50;;;;;;5066326;28;20029;-64
2022/12/18 12:58:03;;;;;;;60.88;35.08;;;0.10;91.80;;;;;;5065411;28;20024;-64